createdAt,value
2023-01-29T00:01:20.200Z,3.63
2023-01-29T00:03:46.675Z,3.55
2023-01-29T00:06:13.131Z,3.60
2023-01-29T00:08:39.723Z,3.60
2023-01-29T00:11:08.305Z,3.58
2023-01-29T00:13:34.994Z,3.57
2023-01-29T00:16:02.233Z,3.50
2023-01-29T00:18:29.296Z,3.36
2023-01-29T00:20:55.824Z,3.42
2023-01-29T00:23:22.753Z,3.42
2023-01-29T00:25:49.480Z,3.30
2023-01-29T00:28:16.380Z,3.36
2023-01-29T00:30:42.782Z,3.25
2023-01-29T00:33:09.260Z,3.18
2023-01-29T00:35:36.027Z,3.17
2023-01-29T00:38:02.477Z,3.18
2023-01-29T00:40:28.848Z,3.17
2023-01-29T00:42:55.285Z,3.26
2023-01-29T00:45:21.981Z,3.33
2023-01-29T00:47:48.388Z,3.28
2023-01-29T00:50:15.184Z,3.22
2023-01-29T00:52:42.735Z,3.06
2023-01-29T00:55:10.771Z,3.01
2023-01-29T00:57:38.053Z,3.21
2023-01-29T01:00:08.052Z,3.10
2023-01-29T01:02:34.716Z,3.09
2023-01-29T01:05:01.203Z,3.13
2023-01-29T01:07:28.107Z,3.12
2023-01-29T01:09:54.575Z,3.16
2023-01-29T01:12:21.306Z,3.27
2023-01-29T01:14:48.370Z,3.27
2023-01-29T01:17:17.698Z,3.46
2023-01-29T01:19:44.544Z,3.32
2023-01-29T01:22:10.967Z,3.43
2023-01-29T01:24:37.979Z,3.28
2023-01-29T01:27:04.855Z,3.18
2023-01-29T01:29:31.391Z,3.21
2023-01-29T01:31:57.893Z,3.18
2023-01-29T01:34:24.341Z,3.36
2023-01-29T01:36:50.817Z,3.37
2023-01-29T01:39:17.237Z,3.44
2023-01-29T01:41:43.797Z,3.34
2023-01-29T01:44:48.095Z,3.42
2023-01-29T01:47:16.658Z,3.50
2023-01-29T01:49:45.076Z,3.49
2023-01-29T01:52:13.332Z,3.46
2023-01-29T01:54:39.951Z,3.44
2023-01-29T01:57:11.650Z,3.47
2023-01-29T01:59:40.277Z,3.42
2023-01-29T02:02:07.648Z,3.42
2023-01-29T02:04:34.741Z,3.32
2023-01-29T02:07:04.530Z,3.34
2023-01-29T02:09:46.211Z,3.32
2023-01-29T02:12:15.977Z,3.48
2023-01-29T02:14:43.945Z,3.32
2023-01-29T02:17:14.041Z,3.51
2023-01-29T02:20:08.466Z,3.55
2023-01-29T02:22:46.856Z,3.52
2023-01-29T02:25:16.252Z,3.39
2023-01-29T02:27:58.246Z,3.36
2023-01-29T02:30:36.219Z,3.43
2023-01-29T02:33:44.641Z,3.59
2023-01-29T02:36:29.683Z,3.56
2023-01-29T02:38:55.992Z,3.62
2023-01-29T02:41:42.523Z,3.56
2023-01-29T02:44:21.397Z,3.58
2023-01-29T02:46:56.232Z,3.52
2023-01-29T02:49:36.028Z,3.38
2023-01-29T02:52:12.569Z,3.38
2023-01-29T02:55:00.815Z,3.56
2023-01-29T02:57:32.886Z,3.51
2023-01-29T03:00:05.700Z,3.47
2023-01-29T03:02:45.545Z,3.45
2023-01-29T03:05:18.033Z,3.37
2023-01-29T03:07:54.592Z,3.38
2023-01-29T03:10:39.099Z,3.35
2023-01-29T03:13:19.872Z,3.39
2023-01-29T03:15:55.182Z,3.38
2023-01-29T03:18:25.082Z,3.31
2023-01-29T03:20:57.701Z,3.19
2023-01-29T03:23:31.956Z,3.20
2023-01-29T03:25:59.739Z,3.16
2023-01-29T03:28:28.253Z,3.09
2023-01-29T03:30:58.647Z,3.01
2023-01-29T03:33:31.766Z,3.06
2023-01-29T03:36:14.759Z,3.11
2023-01-29T03:38:41.350Z,3.12
2023-01-29T03:41:17.906Z,3.05
2023-01-29T03:43:54.963Z,3.10
2023-01-29T03:46:21.341Z,3.04
2023-01-29T03:49:15.334Z,3.00
2023-01-29T03:52:13.499Z,2.97
2023-01-29T03:55:17.542Z,2.97
2023-01-29T03:58:00.048Z,3.02
2023-01-29T04:00:45.035Z,3.18
2023-01-29T04:03:26.450Z,3.08
2023-01-29T04:06:11.483Z,3.11
2023-01-29T04:08:51.425Z,3.07
2023-01-29T04:11:22.171Z,2.98
2023-01-29T04:13:49.206Z,2.97
2023-01-29T04:16:27.204Z,2.94
2023-01-29T04:18:55.045Z,3.03
2023-01-29T04:21:21.959Z,2.92
2023-01-29T04:23:48.382Z,2.98
2023-01-29T04:26:29.067Z,2.96
2023-01-29T04:29:20.213Z,3.07
2023-01-29T04:32:00.736Z,2.98
2023-01-29T04:34:53.402Z,2.87
2023-01-29T04:37:33.161Z,2.91
2023-01-29T04:40:09.023Z,3.01
2023-01-29T04:43:02.161Z,2.91
2023-01-29T04:45:34.797Z,2.89
2023-01-29T04:48:20.355Z,2.80
2023-01-29T04:50:59.519Z,2.96
2023-01-29T04:53:37.410Z,2.81
2023-01-29T04:56:23.789Z,2.82
2023-01-29T04:58:57.154Z,2.80
2023-01-29T05:01:28.142Z,2.73
2023-01-29T05:03:56.404Z,2.70
2023-01-29T05:06:24.097Z,2.64
2023-01-29T05:08:51.574Z,2.58
2023-01-29T05:11:19.867Z,2.67
2023-01-29T05:13:48.717Z,2.61
2023-01-29T05:16:21.946Z,2.75
2023-01-29T05:18:48.678Z,2.84
2023-01-29T05:21:15.498Z,2.87
2023-01-29T05:23:42.117Z,2.87
2023-01-29T05:26:08.511Z,2.83
2023-01-29T05:28:35.584Z,2.71
2023-01-29T05:31:02.164Z,2.77
2023-01-29T05:33:31.205Z,2.85
2023-01-29T05:35:59.464Z,2.74
2023-01-29T05:38:28.503Z,2.78
2023-01-29T05:40:55.089Z,2.70
2023-01-29T05:43:24.293Z,2.76
2023-01-29T05:45:58.844Z,2.70
2023-01-29T05:48:26.736Z,2.75
2023-01-29T05:50:53.121Z,2.71
2023-01-29T05:53:19.747Z,2.68
2023-01-29T05:55:47.785Z,2.75
2023-01-29T05:58:14.848Z,2.67
2023-01-29T06:00:41.976Z,2.76
2023-01-29T06:03:08.554Z,2.74
2023-01-29T06:05:38.542Z,2.78
2023-01-29T06:08:06.691Z,2.73
2023-01-29T06:10:36.142Z,2.71
2023-01-29T06:13:02.966Z,2.72
2023-01-29T06:15:29.394Z,2.75
2023-01-29T06:17:57.322Z,2.74
2023-01-29T06:20:24.882Z,2.70
2023-01-29T06:22:51.323Z,2.81
2023-01-29T06:25:17.998Z,2.75
2023-01-29T06:27:44.362Z,2.72
2023-01-29T06:30:11.389Z,2.75
2023-01-29T06:32:38.387Z,2.76
2023-01-29T06:35:05.402Z,2.77
2023-01-29T06:37:31.917Z,2.66
2023-01-29T06:39:58.560Z,2.79
2023-01-29T06:42:24.926Z,2.84
2023-01-29T06:44:51.452Z,2.84
2023-01-29T06:47:18.100Z,2.91
2023-01-29T06:49:44.505Z,2.92
2023-01-29T06:52:10.934Z,2.86
2023-01-29T06:54:37.239Z,2.76
2023-01-29T06:57:03.940Z,2.71
2023-01-29T06:59:30.492Z,2.78
2023-01-29T07:01:56.905Z,2.73
2023-01-29T07:04:23.376Z,2.74
2023-01-29T07:06:49.744Z,2.75
2023-01-29T07:09:16.389Z,2.79
2023-01-29T07:11:42.732Z,2.77
2023-01-29T07:14:09.472Z,2.75
2023-01-29T07:16:35.845Z,2.83
2023-01-29T07:19:02.324Z,2.82
2023-01-29T07:21:28.937Z,2.82
2023-01-29T07:23:55.791Z,2.81
2023-01-29T07:26:23.485Z,2.82
2023-01-29T07:28:50.157Z,2.84
2023-01-29T07:31:16.732Z,2.81
2023-01-29T07:33:44.142Z,2.82
2023-01-29T07:36:11.739Z,2.83
2023-01-29T07:38:38.315Z,2.94
2023-01-29T07:41:05.011Z,2.87
2023-01-29T07:43:31.607Z,2.79
2023-01-29T07:46:02.456Z,2.86
2023-01-29T07:48:29.016Z,2.87
2023-01-29T07:50:57.101Z,2.87
2023-01-29T07:55:58.877Z,2.89
2023-01-29T08:01:06.194Z,2.93
2023-01-29T08:03:32.558Z,2.89
2023-01-29T08:05:58.937Z,2.91
2023-01-29T08:08:25.337Z,3.03
2023-01-29T08:10:51.889Z,2.96
2023-01-29T08:13:18.341Z,2.97
2023-01-29T08:15:47.538Z,2.93
2023-01-29T08:18:14.515Z,3.12
2023-01-29T08:20:41.020Z,2.99
2023-01-29T08:23:13.428Z,3.10
2023-01-29T08:25:41.847Z,3.09
2023-01-29T08:28:08.490Z,3.13
2023-01-29T08:30:35.760Z,3.17
2023-01-29T08:33:04.248Z,3.16
2023-01-29T08:35:31.330Z,3.13
2023-01-29T08:38:02.948Z,3.12
2023-01-29T08:40:34.384Z,3.11
2023-01-29T08:43:08.650Z,3.11
2023-01-29T08:45:39.274Z,3.10
2023-01-29T08:48:06.869Z,3.19
2023-01-29T08:50:35.069Z,3.25
2023-01-29T08:53:04.464Z,3.26
2023-01-29T09:00:46.352Z,3.39
2023-01-29T09:03:13.259Z,3.34
2023-01-29T09:08:21.696Z,3.33
2023-01-29T09:10:48.246Z,3.36
2023-01-29T09:13:14.673Z,3.30
2023-01-29T09:15:41.326Z,3.44
2023-01-29T09:20:58.193Z,3.50
2023-01-29T09:23:24.633Z,3.50
2023-01-29T09:25:51.476Z,3.52
2023-01-29T09:30:52.956Z,3.61
2023-01-29T09:33:19.391Z,3.68
2023-01-29T09:35:46.415Z,3.66
2023-01-29T09:38:13.496Z,3.71
2023-01-29T09:41:02.175Z,3.71
2023-01-29T09:43:47.203Z,3.78
2023-01-29T09:46:25.438Z,3.79
2023-01-29T09:49:00.836Z,3.87
2023-01-29T09:51:35.261Z,3.99
2023-01-29T09:54:17.861Z,4.01
2023-01-29T09:56:45.817Z,3.95
2023-01-29T09:59:14.217Z,3.91
2023-01-29T10:01:58.579Z,3.97
2023-01-29T10:04:52.660Z,3.95
2023-01-29T10:07:48.326Z,4.14
2023-01-29T10:10:42.001Z,4.00
2023-01-29T10:13:40.528Z,4.03
2023-01-29T10:16:19.179Z,4.04
2023-01-29T10:19:14.716Z,4.13
2023-01-29T10:22:18.765Z,4.24
2023-01-29T10:24:53.944Z,4.24
2023-01-29T10:27:20.349Z,4.13
2023-01-29T10:29:51.337Z,4.23
2023-01-29T10:32:21.873Z,4.20
2023-01-29T10:34:56.823Z,4.09
2023-01-29T10:37:30.839Z,4.05
2023-01-29T10:40:00.475Z,4.03
2023-01-29T10:42:43.052Z,3.98
2023-01-29T10:45:26.334Z,4.05
2023-01-29T10:48:38.891Z,4.17
2023-01-29T10:51:24.901Z,4.10
2023-01-29T10:54:04.356Z,4.31
2023-01-29T11:02:16.145Z,4.39
2023-01-29T11:04:42.741Z,4.30
2023-01-29T11:07:12.673Z,4.28
2023-01-29T11:10:00.460Z,4.34
2023-01-29T11:12:31.392Z,4.38
2023-01-29T11:15:14.753Z,4.53
2023-01-29T11:18:01.381Z,4.47
2023-01-29T11:20:28.917Z,4.56
2023-01-29T11:22:55.604Z,4.52
2023-01-29T11:25:24.296Z,4.46
2023-01-29T11:27:57.406Z,4.53
2023-01-29T11:30:25.590Z,4.56
2023-01-29T11:33:06.854Z,4.58
2023-01-29T11:35:41.464Z,4.60
2023-01-29T11:38:18.576Z,4.57
2023-01-29T11:40:45.615Z,4.60
2023-01-29T11:43:26.455Z,4.68
2023-01-29T11:45:56.079Z,4.48
2023-01-29T11:48:32.091Z,4.44
2023-01-29T11:51:01.267Z,4.41
2023-01-29T11:53:38.557Z,4.38
2023-01-29T11:56:42.922Z,4.54
2023-01-29T11:59:36.556Z,4.56
2023-01-29T12:02:14.771Z,4.52
2023-01-29T12:04:41.357Z,4.52
2023-01-29T12:07:16.062Z,4.60
2023-01-29T12:09:58.064Z,4.41
2023-01-29T12:12:28.919Z,4.57
2023-01-29T12:15:16.709Z,4.61
2023-01-29T12:17:50.610Z,4.53
2023-01-29T12:20:26.830Z,4.53
2023-01-29T12:23:12.087Z,4.58
2023-01-29T12:26:10.359Z,4.60
2023-01-29T12:28:55.004Z,4.57
2023-01-29T12:31:37.851Z,4.43
2023-01-29T12:34:45.512Z,4.47
2023-01-29T12:37:20.986Z,4.41
2023-01-29T12:39:50.100Z,4.49
2023-01-29T12:42:24.227Z,4.56
2023-01-29T12:44:59.717Z,4.40
2023-01-29T12:47:28.788Z,4.45
2023-01-29T12:50:03.422Z,4.58
2023-01-29T12:52:42.236Z,4.45
2023-01-29T12:55:27.864Z,4.45
2023-01-29T12:57:59.999Z,4.53
2023-01-29T13:00:33.817Z,4.48
2023-01-29T13:03:27.586Z,4.47
2023-01-29T13:06:02.567Z,4.53
2023-01-29T13:08:47.502Z,4.60
2023-01-29T13:11:25.388Z,4.46
2023-01-29T13:14:26.355Z,4.44
2023-01-29T13:17:02.502Z,4.57
2023-01-29T13:19:35.014Z,4.53
2023-01-29T13:22:04.942Z,4.47
2023-01-29T13:24:40.543Z,4.53
2023-01-29T13:27:07.405Z,4.48
2023-01-29T13:29:34.093Z,4.53
2023-01-29T13:32:04.462Z,4.58
2023-01-29T13:34:33.692Z,4.71
2023-01-29T13:37:12.950Z,4.64
2023-01-29T13:39:46.295Z,4.74
2023-01-29T13:42:19.068Z,4.78
2023-01-29T13:44:51.637Z,4.85
2023-01-29T13:47:26.654Z,4.87
2023-01-29T13:50:07.404Z,4.82
2023-01-29T13:52:36.770Z,5.00
2023-01-29T13:55:15.559Z,5.03
2023-01-29T13:57:45.260Z,4.92
2023-01-29T14:00:20.723Z,4.97
2023-01-29T14:03:07.013Z,4.92
2023-01-29T14:05:39.541Z,4.89
2023-01-29T14:08:09.393Z,5.11
2023-01-29T14:10:37.796Z,5.00
2023-01-29T14:13:04.082Z,4.89
2023-01-29T14:15:32.520Z,4.94
2023-01-29T14:18:18.055Z,4.95
2023-01-29T14:20:47.741Z,5.00
2023-01-29T14:23:57.604Z,5.13
2023-01-29T14:26:30.189Z,5.06
2023-01-29T14:28:59.649Z,5.09
2023-01-29T14:31:37.468Z,5.04
2023-01-29T14:34:13.945Z,5.21
2023-01-29T14:36:45.555Z,5.20
2023-01-29T14:39:48.758Z,5.11
2023-01-29T14:42:26.836Z,5.30
2023-01-29T14:45:22.722Z,5.13
2023-01-29T14:47:49.186Z,5.11
2023-01-29T14:50:18.872Z,5.13
2023-01-29T14:52:47.935Z,5.11
2023-01-29T14:55:31.133Z,5.15
2023-01-29T14:57:59.006Z,5.11
2023-01-29T15:00:33.213Z,5.18
2023-01-29T15:03:02.565Z,5.06
2023-01-29T15:05:32.768Z,5.09
2023-01-29T15:08:15.820Z,5.10
2023-01-29T15:10:45.597Z,5.13
2023-01-29T15:13:37.941Z,5.19
2023-01-29T15:16:25.622Z,5.09
2023-01-29T15:18:57.178Z,5.11
2023-01-29T15:21:23.599Z,5.09
2023-01-29T15:24:04.469Z,5.00
2023-01-29T15:26:31.186Z,5.03
2023-01-29T15:29:04.642Z,5.04
2023-01-29T15:31:32.093Z,5.00
2023-01-29T15:34:04.506Z,5.01
2023-01-29T15:36:32.304Z,4.95
2023-01-29T15:39:21.565Z,4.96
2023-01-29T15:41:48.669Z,4.94
2023-01-29T15:44:18.177Z,4.91
2023-01-29T15:46:51.144Z,4.96
2023-01-29T15:49:30.898Z,4.92
2023-01-29T15:52:00.301Z,5.03
2023-01-29T15:54:31.084Z,4.90
2023-01-29T15:56:57.685Z,4.92
2023-01-29T15:59:29.194Z,4.90
2023-01-29T16:01:55.717Z,4.88
2023-01-29T16:04:26.796Z,4.85
2023-01-29T16:06:54.446Z,4.88
2023-01-29T16:09:24.837Z,4.87
2023-01-29T16:11:53.037Z,4.84
2023-01-29T16:14:24.339Z,4.92
2023-01-29T16:16:51.457Z,4.93
2023-01-29T16:19:29.754Z,4.98
2023-01-29T16:22:02.397Z,4.83
2023-01-29T16:24:31.223Z,4.80
2023-01-29T16:27:00.680Z,4.76
2023-01-29T16:29:32.557Z,4.73
2023-01-29T16:32:01.277Z,4.76
2023-01-29T16:34:36.336Z,4.67
2023-01-29T16:37:06.542Z,4.70
2023-01-29T16:39:36.633Z,4.65
2023-01-29T16:42:12.251Z,4.57
2023-01-29T16:44:46.899Z,4.54
2023-01-29T16:47:20.415Z,4.42
2023-01-29T16:49:50.897Z,4.39
2023-01-29T16:52:35.452Z,4.35
2023-01-29T16:55:19.839Z,4.36
2023-01-29T16:57:52.507Z,4.32
2023-01-29T17:00:28.274Z,4.31
2023-01-29T17:03:00.345Z,4.19
2023-01-29T17:05:31.487Z,4.13
2023-01-29T17:08:00.247Z,4.11
2023-01-29T17:10:29.044Z,4.14
2023-01-29T17:13:03.237Z,4.07
2023-01-29T17:15:33.561Z,4.06
2023-01-29T17:18:00.234Z,4.08
2023-01-29T17:20:27.786Z,4.03
2023-01-29T17:22:54.595Z,4.01
2023-01-29T17:25:21.347Z,3.98
2023-01-29T17:27:47.951Z,3.97
2023-01-29T17:30:16.709Z,3.94
2023-01-29T17:32:44.970Z,3.97
2023-01-29T17:35:16.649Z,4.00
2023-01-29T17:37:44.894Z,4.00
2023-01-29T17:40:50.128Z,4.03
2023-01-29T17:43:16.685Z,3.97
2023-01-29T17:45:43.339Z,3.99
2023-01-29T17:48:27.734Z,3.99
2023-01-29T17:50:57.028Z,4.03
2023-01-29T17:53:26.555Z,4.05
2023-01-29T17:55:57.009Z,4.02
2023-01-29T17:58:28.559Z,4.06
2023-01-29T18:00:56.531Z,4.07
2023-01-29T18:03:23.913Z,4.07
2023-01-29T18:05:51.995Z,4.13
2023-01-29T18:08:31.878Z,4.10
2023-01-29T18:10:58.725Z,4.14
2023-01-29T18:13:27.501Z,4.13
2023-01-29T18:15:54.214Z,4.11
2023-01-29T18:18:25.543Z,4.13
2023-01-29T18:20:51.980Z,4.15
2023-01-29T18:23:18.503Z,4.14
2023-01-29T18:25:45.947Z,4.18
2023-01-29T18:28:16.800Z,4.20
2023-01-29T18:30:47.612Z,4.23
2023-01-29T18:33:16.149Z,4.29
2023-01-29T18:35:48.439Z,4.23
2023-01-29T18:38:14.889Z,4.21
2023-01-29T18:40:41.451Z,4.26
2023-01-29T18:43:08.000Z,4.21
2023-01-29T18:45:34.591Z,4.26
2023-01-29T18:48:01.321Z,4.21
2023-01-29T18:50:27.966Z,4.25
2023-01-29T18:52:55.654Z,4.30
2023-01-29T18:55:22.396Z,4.23
2023-01-29T18:58:25.118Z,4.26
2023-01-29T19:00:42.072Z,4.24
2023-01-29T19:03:08.540Z,4.24
2023-01-29T19:05:34.938Z,4.27
2023-01-29T19:08:01.256Z,4.24
2023-01-29T19:10:27.643Z,4.21
2023-01-29T19:12:53.969Z,4.26
2023-01-29T19:15:20.331Z,4.25
2023-01-29T19:17:46.675Z,4.17
2023-01-29T19:20:13.145Z,4.17
2023-01-29T19:22:39.938Z,4.13
2023-01-29T19:25:06.867Z,4.16
2023-01-29T19:27:33.358Z,4.13
2023-01-29T19:29:59.885Z,4.20
2023-01-29T19:32:26.766Z,4.32
2023-01-29T19:34:53.092Z,4.30
2023-01-29T19:37:19.397Z,4.34
2023-01-29T19:39:46.041Z,4.37
2023-01-29T19:42:12.432Z,4.25
2023-01-29T19:44:38.791Z,4.30
2023-01-29T19:47:05.387Z,4.28
2023-01-29T19:49:31.693Z,4.31
2023-01-29T19:51:58.015Z,4.35
2023-01-29T19:54:24.983Z,4.42
2023-01-29T19:56:51.361Z,4.33
2023-01-29T19:59:17.728Z,4.32
2023-01-29T20:01:44.325Z,4.42
2023-01-29T20:04:10.985Z,4.40
2023-01-29T20:06:37.488Z,4.42
2023-01-29T20:09:04.283Z,4.46
2023-01-29T20:11:31.433Z,4.48
2023-01-29T20:13:58.233Z,4.52
2023-01-29T20:16:25.697Z,4.58
2023-01-29T20:18:52.509Z,4.54
2023-01-29T20:21:20.639Z,4.60
2023-01-29T20:23:50.069Z,4.56
2023-01-29T20:26:17.442Z,4.55
2023-01-29T20:28:46.181Z,4.55
2023-01-29T20:31:12.685Z,4.58
2023-01-29T20:33:39.812Z,4.60
2023-01-29T20:36:08.588Z,4.54
2023-01-29T20:38:34.953Z,4.53
2023-01-29T20:41:14.591Z,4.54
2023-01-29T20:43:42.238Z,4.53
2023-01-29T20:46:09.052Z,4.63
2023-01-29T20:48:36.390Z,4.73
2023-01-29T20:51:06.488Z,4.71
2023-01-29T20:53:32.815Z,4.65
2023-01-29T20:55:59.240Z,4.70
2023-01-29T20:58:25.871Z,4.67
2023-01-29T21:00:52.363Z,4.71
2023-01-29T21:03:19.921Z,4.73
2023-01-29T21:05:46.267Z,4.71
2023-01-29T21:08:12.642Z,4.74
2023-01-29T21:10:38.962Z,4.74
2023-01-29T21:13:05.338Z,4.68
2023-01-29T21:15:31.690Z,4.75
2023-01-29T21:17:58.058Z,4.86
2023-01-29T21:20:24.383Z,4.74
2023-01-29T21:22:50.665Z,4.76
2023-01-29T21:25:17.049Z,4.80
2023-01-29T21:27:43.381Z,4.76
2023-01-29T21:30:12.416Z,4.80
2023-01-29T21:32:38.862Z,4.90
2023-01-29T21:35:05.765Z,4.92
2023-01-29T21:37:32.164Z,4.95
2023-01-29T21:39:58.517Z,4.94
2023-01-29T21:42:24.869Z,5.04
2023-01-29T21:44:51.238Z,4.97
2023-01-29T21:47:17.769Z,5.01
2023-01-29T21:49:44.729Z,5.06
2023-01-29T21:52:12.770Z,5.12
2023-01-29T21:54:39.711Z,5.10
2023-01-29T21:57:11.009Z,5.10
2023-01-29T21:59:37.381Z,5.14
2023-01-29T22:02:03.984Z,5.10
2023-01-29T22:04:30.418Z,5.16
2023-01-29T22:06:56.783Z,5.18
2023-01-29T22:09:23.173Z,5.17
2023-01-29T22:11:49.796Z,5.16
2023-01-29T22:14:16.153Z,5.26
2023-01-29T22:16:42.603Z,5.20
2023-01-29T22:19:08.941Z,5.30
2023-01-29T22:21:36.005Z,5.34
2023-01-29T22:24:02.453Z,5.30
2023-01-29T22:26:28.815Z,5.42
2023-01-29T22:28:55.378Z,5.38
2023-01-29T22:31:21.763Z,5.49
2023-01-29T22:33:48.207Z,5.49
2023-01-29T22:36:14.666Z,5.48
2023-01-29T22:38:44.204Z,5.61
2023-01-29T22:41:10.951Z,5.55
2023-01-29T22:43:37.381Z,5.60
2023-01-29T22:46:11.360Z,5.61
2023-01-29T22:48:37.683Z,5.55
2023-01-29T22:51:04.389Z,5.62
2023-01-29T22:53:30.691Z,5.71
2023-01-29T22:55:57.454Z,5.77
2023-01-29T22:58:23.743Z,5.73
2023-01-29T23:00:50.721Z,5.77
2023-01-29T23:03:17.370Z,5.74
2023-01-29T23:05:43.700Z,5.82
2023-01-29T23:08:10.049Z,5.90
2023-01-29T23:10:36.403Z,5.91
2023-01-29T23:13:02.744Z,5.92
2023-01-29T23:15:29.128Z,5.94
2023-01-29T23:17:55.548Z,5.99
2023-01-29T23:20:21.850Z,6.04
2023-01-29T23:22:49.263Z,6.04
2023-01-29T23:25:16.438Z,6.03
2023-01-29T23:27:42.792Z,5.97
2023-01-29T23:30:09.658Z,5.95
2023-01-29T23:32:36.362Z,5.99
2023-01-29T23:35:02.712Z,6.02
2023-01-29T23:37:29.063Z,6.04
2023-01-29T23:39:55.422Z,6.13
2023-01-29T23:42:22.972Z,6.13
2023-01-29T23:44:49.346Z,6.18
2023-01-29T23:47:15.747Z,6.24
2023-01-29T23:49:42.183Z,6.14
2023-01-29T23:52:08.545Z,6.21
2023-01-29T23:54:34.905Z,6.21
2023-01-29T23:57:01.234Z,6.24
2023-01-29T23:59:27.734Z,6.26
